地図

経路データ

SID SEASON NUMBER BASIN SUBBASIN NAME ISO_TIME NATURE LAT LON WMO_WIND WMO_PRES WMO_AGENCY TRACK_TYPE DIST2LAND LANDFALL IFLAG USA_AGENCY USA_ATCF_ID USA_LAT USA_LON USA_RECORD USA_STATUS USA_WIND USA_PRES USA_SSHS USA_R34_NE USA_R34_SE USA_R34_SW USA_R34_NW USA_R50_NE USA_R50_SE USA_R50_SW USA_R50_NW USA_R64_NE USA_R64_SE USA_R64_SW USA_R64_NW USA_POCI USA_ROCI USA_RMW USA_EYE TOKYO_LAT TOKYO_LON TOKYO_GRADE TOKYO_WIND TOKYO_PRES TOKYO_R50_DIR TOKYO_R50_LONG TOKYO_R50_SHORT TOKYO_R30_DIR TOKYO_R30_LONG TOKYO_R30_SHORT TOKYO_LAND CMA_LAT CMA_LON CMA_CAT CMA_WIND CMA_PRES HKO_LAT HKO_LON HKO_CAT HKO_WIND HKO_PRES NEWDELHI_LAT NEWDELHI_LON NEWDELHI_GRADE NEWDELHI_WIND NEWDELHI_PRES NEWDELHI_CI NEWDELHI_DP NEWDELHI_POCI REUNION_LAT REUNION_LON REUNION_TYPE REUNION_WIND REUNION_PRES REUNION_TNUM REUNION_CI REUNION_RMW REUNION_R34_NE REUNION_R34_SE REUNION_R34_SW REUNION_R34_NW REUNION_R50_NE REUNION_R50_SE REUNION_R50_SW REUNION_R50_NW REUNION_R64_NE REUNION_R64_SE REUNION_R64_SW REUNION_R64_NW BOM_LAT BOM_LON BOM_TYPE BOM_WIND BOM_PRES BOM_TNUM BOM_CI BOM_RMW BOM_R34_NE BOM_R34_SE BOM_R34_SW BOM_R34_NW BOM_R50_NE BOM_R50_SE BOM_R50_SW BOM_R50_NW BOM_R64_NE BOM_R64_SE BOM_R64_SW BOM_R64_NW BOM_ROCI BOM_POCI BOM_EYE BOM_POS_METHOD BOM_PRES_METHOD NADI_LAT NADI_LON NADI_CAT NADI_WIND NADI_PRES WELLINGTON_LAT WELLINGTON_LON WELLINGTON_WIND WELLINGTON_PRES DS824_LAT DS824_LON DS824_STAGE DS824_WIND DS824_PRES TD9636_LAT TD9636_LON TD9636_STAGE TD9636_WIND TD9636_PRES TD9635_LAT TD9635_LON TD9635_WIND TD9635_PRES TD9635_ROCI NEUMANN_LAT NEUMANN_LON NEUMANN_CLASS NEUMANN_WIND NEUMANN_PRES MLC_LAT MLC_LON MLC_CLASS MLC_WIND MLC_PRES USA_GUST BOM_GUST BOM_GUST_PER REUNION_GUST REUNION_GUST_PER USA_SEAHGT USA_SEARAD_NE USA_SEARAD_SE USA_SEARAD_SW USA_SEARAD_NW STORM_SPEED STORM_DIR
1952176N21090 1952 34 NI BB NOT_NAMED 1952-06-23 18:00:00 TS 20.9000 89.7000 main 94 73 O________O____ jtwc_io IO031952 20.9000 89.7000 -1 20.9000 89.7000 TC 6 293
1952176N21090 1952 34 NI BB NOT_NAMED 1952-06-23 21:00:00 TS 21.0101 89.4201 main 73 56 P________P____ IO031952 21.0101 89.4201 -1 21.0101 89.4201 TC 5 293
1952176N21090 1952 34 NI BB NOT_NAMED 1952-06-24 00:00:00 TS 21.1000 89.2000 main 56 44 O________O____ jtwc_io IO031952 21.1000 89.2000 -1 21.1000 89.2000 TC 25 4 296
1952176N21090 1952 34 NI BB NOT_NAMED 1952-06-24 03:00:00 TS 21.1622 89.0799 main 44 44 P________PO___ IO031952 21.1574 89.0774 -1 21.1574 89.0774 TC 25 21.2000 89.1000 1 2 300
1952176N21090 1952 34 NI BB NOT_NAMED 1952-06-24 06:00:00 TS 21.2107 88.9969 main 44 33 O________OP___ jtwc_io IO031952 21.2000 89.0000 -1 21.2000 89.0000 TC 25 21.2533 88.9845 1 2 301
1952176N21090 1952 34 NI BB NOT_NAMED 1952-06-24 09:00:00 TS 21.2650 88.8932 main 33 33 P________PP___ IO031952 21.2500 88.9000 -1 21.2500 88.9000 TC 25 21.3052 88.8752 1 2 300
1952176N21090 1952 34 NI BB NOT_NAMED 1952-06-24 12:00:00 TS 21.3182 88.7927 main 35 30 O________OP___ jtwc_io IO031952 21.3000 88.8000 -1 21.3000 88.8000 TC 25 21.3545 88.7782 1 2 298
1952176N21090 1952 34 NI BB NOT_NAMED 1952-06-24 15:00:00 TS 21.3667 88.6950 main 30 24 P________PO___ IO031952 21.3500 88.6925 -1 21.3500 88.6925 TC 25 21.4000 88.7000 1 2 300
1952176N21090 1952 34 NI BB NOT_NAMED 1952-06-24 18:00:00 TS 21.4139 88.6140 main 24 15 O________OP___ jtwc_io IO031952 21.4000 88.6000 -1 21.4000 88.6000 TC 25 21.4417 88.6420 1 1 307
1952176N21090 1952 34 NI BB NOT_NAMED 1952-06-24 21:00:00 TS 21.4566 88.5674 main 15 11 P________PP___ IO031952 21.4425 88.5575 -1 21.4425 88.5575 TC 25 21.4848 88.5872 1 1 313
1952176N21090 1952 34 NI BB NOT_NAMED 1952-06-25 00:00:00 TS 21.5118 88.5046 main 11 0 O________OP___ jtwc_io IO031952 21.5000 88.5000 -1 21.5000 88.5000 TC 25 21.5354 88.5139 1 2 310
1952176N21090 1952 34 NI BB NOT_NAMED 1952-06-25 03:00:00 TS 21.5950 88.3867 main 0 0 P________PO___ IO031952 21.5925 88.3800 -1 21.5925 88.3800 TC 25 21.6000 88.4000 1 3 303
1952176N21090 1952 34 NI BB NOT_NAMED 1952-06-25 06:00:00 TS 21.6926 88.2047 main 0 0 O________OP___ jtwc_io IO031952 21.7000 88.2000 -1 21.7000 88.2000 TC 25 21.6777 88.2141 1 4 297
1952176N21090 1952 34 NI BB NOT_NAMED 1952-06-25 09:00:00 TS 21.7901 87.9675 main 10 0 P________PP___ IO031952 21.8001 87.9575 -1 21.8001 87.9575 TC 25 21.7702 87.9875 1 5 294
1952176N21090 1952 34 NI BB NOT_NAMED 1952-06-25 12:00:00 TS 21.8925 87.7141 main 0 0 O________OP___ jtwc_io IO031952 21.9000 87.7000 -1 21.9000 87.7000 TC 25 21.8776 87.7422 1 5 295
1952176N21090 1952 34 NI BB NOT_NAMED 1952-06-25 15:00:00 TS 21.9950 87.4950 main 0 0 P________PO___ IO031952 21.9924 87.4924 -1 21.9924 87.4924 TC 25 22.0000 87.5000 1 4 300
1952176N21090 1952 34 NI BB NOT_NAMED 1952-06-25 18:00:00 TS 22.1076 87.3096 main 0 0 O________OP___ jtwc_io IO031952 22.1000 87.3000 -1 22.1000 87.3000 TC 25 22.1229 87.3288 1 4 306
1952176N21090 1952 34 NI BB NOT_NAMED 1952-06-25 21:00:00 TS 22.2439 87.1246 main 0 0 P________PP___ IO031952 22.2349 87.1074 -1 22.2349 87.1074 TC 25 22.2617 87.1591 1 5 310
1952176N21090 1952 34 NI BB NOT_NAMED 1952-06-26 00:00:00 TS 22.4065 86.9200 main 0 0 O________OP___ jtwc_io IO031952 22.4000 86.9000 -1 22.4000 86.9000 TC 25 22.4196 86.9599 1 5 312
1952176N21090 1952 34 NI BB NOT_NAMED 1952-06-26 03:00:00 TS 22.5948 86.6966 main 0 0 P________PO___ IO031952 22.5923 86.6948 -1 22.5923 86.6948 TC 25 22.6000 86.7000 1 6 307
1952176N21090 1952 34 NI BB NOT_NAMED 1952-06-26 06:00:00 TS 22.7974 86.3652 main 0 0 O________OP___ jtwc_io IO031952 22.8000 86.4000 -1 22.8000 86.4000 TC 25 22.7923 86.2957 1 8 298
1952176N21090 1952 34 NI BB NOT_NAMED 1952-06-26 09:00:00 TS 22.9924 85.8886 main 0 0 P________PP___ IO031952 22.9853 85.9150 -1 22.9853 85.9150 TC 25 23.0065 85.8359 1 10 295
1952176N21090 1952 34 NI BB NOT_NAMED 1952-06-26 12:00:00 TS 23.2141 85.3944 main 0 0 O________OP___ jtwc_io IO031952 23.2000 85.4000 -1 23.2000 85.4000 TC 25 23.2423 85.3832 1 10 301
1952176N21090 1952 34 NI BB NOT_NAMED 1952-06-26 15:00:00 TS 23.4899 84.9984 main 0 0 P________PO___ IO031952 23.4849 84.9976 -1 23.4849 84.9976 TC 25 23.5000 85.0000 1 9 313
1952176N21090 1952 34 NI BB NOT_NAMED 1952-06-26 18:00:00 TS 23.7918 84.7134 main 0 0 O________OP___ jtwc_io IO031952 23.8000 84.7000 -1 23.8000 84.7000 TC 25 23.7795 84.7335 1 7 325
1952176N21090 1952 34 NI BB NOT_NAMED 1952-06-26 21:00:00 TS 24.0928 84.5386 main 0 0 P________PP___ IO031952 24.1050 84.5175 -1 24.1050 84.5175 TC 25 24.0764 84.5668 1 7 337
1952176N21090 1952 34 NI BB NOT_NAMED 1952-06-27 00:00:00 TS 24.3926 84.4334 main 0 0 O________OP___ jtwc_io IO031952 24.4000 84.4000 -1 24.4000 84.4000 TC 25 24.3852 84.4668 1 6 348
1952176N21090 1952 34 NI BB NOT_NAMED 1952-06-27 03:00:00 NR 24.7000 84.4000 main 0 __________O___ IO031952 -1 TC 24.7000 84.4000 1 6 354

IBTrACS Databaseについて

本データベースは、米国NOAAが公開する1842年以降の世界の熱帯低気圧のベストトラックデータアーカイブInternational Best Track Archive for Climate Stewardship (IBTrACS)を、ウェブで閲覧しやすい形式に変換したものです。

最終更新日:2021-12-06